ADDS METAR Data INFO
IDs: Format: Raw Decoded Include TAF

Data at: 1355 UTC 17 Dec 2017

K3K3 171335Z AUTO 35009KT 10SM OVC013 00/M02 A3001 RMK AO2
K3K3 171315Z AUTO 35012G17KT 10SM OVC013 00/M02 A3000 RMK AO2
K3K3 171255Z AUTO 36011KT 10SM OVC015 00/M02 A2998 RMK AO2
K3K3 171235Z AUTO 36012G17KT 10SM OVC013 00/M02 A2997 RMK AO2
K3K3 171215Z AUTO 36011G16KT 10SM OVC013 00/M02 A2997 RMK AO2
K3K3 171155Z AUTO 01014G17KT 10SM OVC011 00/M02 A2995 RMK AO2
K3K3 171135Z AUTO 01017G20KT 10SM OVC011 00/M02 A2994 RMK AO2
K3K3 171115Z AUTO 36013G20KT 10SM OVC011 00/M02 A2994 RMK AO2
K3K3 171055Z AUTO 02017G23KT 10SM OVC011 00/M02 A2993 RMK AO2
K3K3 171035Z AUTO 01016G25KT 10SM OVC009 00/M02 A2992 RMK AO2
K3K3 171015Z AUTO 01018G24KT 10SM OVC009 M01/M02 A2990 RMK AO2
K3K3 170955Z AUTO 36018G24KT 10SM OVC009 M01/M02 A2989 RMK AO2
K3K3 170935Z AUTO 01018G25KT 10SM OVC009 M01/M02 A2988 RMK AO2
K3K3 170915Z AUTO 02017G22KT 10SM BKN009 M01/M03 A2987 RMK AO2
K3K3 170855Z AUTO 01017G22KT 10SM SCT009 M01/M03 A2986 RMK AO2
K3K3 170835Z AUTO 01018G23KT 10SM CLR M02/M03 A2986 RMK AO2
K3K3 170815Z AUTO 01017G21KT 10SM CLR M02/M03 A2985 RMK AO2
K3K3 170755Z AUTO 01015G19KT 10SM CLR M02/M03 A2984 RMK AO2
K3K3 170735Z AUTO 01016G19KT 10SM CLR M02/M03 A2984 RMK AO2
K3K3 170715Z AUTO 01016G23KT 10SM CLR M01/M03 A2983 RMK AO2
K3K3 170655Z AUTO 01016G20KT 10SM CLR M01/M04 A2982 RMK AO2
K3K3 170635Z AUTO 01014G18KT 10SM CLR M01/M05 A2983 RMK AO2
K3K3 170615Z AUTO 01013KT 10SM CLR M01/M07 A2982 RMK AO2
K3K3 170555Z AUTO 01014G18KT 10SM CLR M01/M08 A2982 RMK AO2
K3K3 170535Z AUTO 01012G17KT 10SM CLR M01/M09 A2981 RMK AO2
K3K3 170515Z AUTO 01010KT 10SM CLR M01/M09 A2980 RMK AO2
K3K3 170455Z AUTO 01011KT 10SM CLR M01/M08 A2980 RMK AO2
K3K3 170435Z AUTO 01010KT 10SM CLR M02/M09 A2979 RMK AO2
K3K3 170415Z AUTO 01009KT 10SM CLR M02/M09 A2979 RMK AO2
K3K3 170355Z AUTO 36008KT 10SM CLR M03/M10 A2978 RMK AO2
K3K3 170335Z AUTO 01012KT 10SM CLR M02/M10 A2977 RMK AO2
K3K3 170315Z AUTO 01009KT 10SM CLR 00/M10 A2976 RMK AO2
K3K3 170255Z AUTO 12006KT 10SM CLR 03/M09 A2975 RMK AO2
K3K3 170235Z AUTO 11008KT 10SM CLR 02/M10 A2975 RMK AO2
K3K3 170215Z AUTO 10008KT 10SM CLR 03/M10 A2975 RMK AO2
K3K3 170155Z AUTO 12007KT 10SM CLR 03/M10 A2975 RMK AO2
K3K3 170135Z AUTO 10007KT 10SM CLR 01/M09 A2975 RMK AO2
K3K3 170115Z AUTO 06009KT 10SM CLR 03/M08 A2974 RMK AO2
K3K3 170055Z AUTO 05010KT 10SM CLR 01/M10 A2975 RMK AO2
K3K3 170035Z AUTO 01008KT 10SM CLR 01/M10 A2973 RMK AO2
K3K3 170015Z AUTO 09005KT 10SM CLR 06/M10 A2972 RMK AO2
K3K3 162355Z AUTO 12003KT 10SM CLR 06/M10 A2970 RMK AO2
K3K3 162335Z AUTO 12004KT 10SM CLR 07/M10 A2969 RMK AO2
K3K3 162315Z AUTO 15006KT 10SM CLR 11/M09 A2969 RMK AO2
K3K3 162255Z AUTO 16007KT 10SM CLR 13/M09 A2968 RMK AO2
K3K3 162235Z AUTO 12005KT 10SM CLR 14/M08 A2968 RMK AO2
K3K3 162215Z AUTO 09005KT 10SM CLR 14/M07 A2968 RMK AO2
K3K3 162155Z AUTO 11004KT 10SM CLR 14/M07 A2968 RMK AO2
K3K3 162135Z AUTO 12003KT 10SM CLR 13/M08 A2968 RMK AO2
K3K3 162115Z AUTO 11006KT 10SM CLR 13/M08 A2968 RMK AO2
K3K3 162055Z AUTO 12008KT 10SM CLR 13/M08 A2968 RMK AO2
K3K3 162035Z AUTO 11008KT 10SM CLR 13/M08 A2968 RMK AO2
K3K3 162015Z AUTO 12012KT 10SM CLR 13/M08 A2968 RMK AO2
K3K3 161955Z AUTO 12012G15KT 10SM CLR 13/M08 A2968 RMK AO2
K3K3 161935Z AUTO 10009KT 070V130 10SM CLR 15/M08 A2968 RMK AO2
K3K3 161915Z AUTO 08010KT 10SM CLR 14/M09 A2968 RMK AO2
K3K3 161855Z AUTO 04009G14KT 10SM CLR 14/M08 A2969 RMK AO2
K3K3 161835Z AUTO 09008KT 10SM CLR 13/M08 A2969 RMK AO2
K3K3 161815Z AUTO 00000KT 10SM CLR 11/M08 A2970 RMK AO2
K3K3 161755Z AUTO 21003KT 10SM CLR 09/M08 A2971 RMK AO2
K3K3 161735Z AUTO 20003KT 10SM CLR 08/M08 A2972 RMK AO2
K3K3 161715Z AUTO 30004KT 10SM CLR 06/M08 A2972 RMK AO2
K3K3 161655Z AUTO 29005KT 10SM CLR 04/M08 A2973 RMK AO2
K3K3 161635Z AUTO 28005KT 10SM CLR 02/M08 A2973 RMK AO2
K3K3 161615Z AUTO 29005KT 10SM CLR 00/M09 A2973 RMK AO2
K3K3 161555Z AUTO 28004KT 10SM CLR M01/M10 A2973 RMK AO2
K3K3 161535Z AUTO 27004KT 10SM CLR M02/M10 A2973 RMK AO2
K3K3 161515Z AUTO 28006KT 10SM CLR M04/M11 A2973 RMK AO2
K3K3 161455Z AUTO 27008KT 10SM CLR M05/M11 A2973 RMK AO2
K3K3 161435Z AUTO 27007KT 10SM CLR M07/M11 A2973 RMK AO2
K3K3 161415Z AUTO 25004KT 10SM CLR M08/M11 A2973 RMK AO2
K3K3 161355Z AUTO 29004KT 10SM CLR M07/M12 A2973 RMK AO2
K3K3 161335Z AUTO 29006KT 10SM CLR M07/M11 A2973 RMK AO2
K3K3 161315Z AUTO 28005KT 10SM CLR M06/M11 A2973 RMK AO2
K3K3 161255Z AUTO 28006KT 10SM CLR M07/M11 A2973 RMK AO2
K3K3 161235Z AUTO 28006KT 10SM CLR M07/M11 A2973 RMK AO2
K3K3 161215Z AUTO 28005KT 10SM CLR M07/M11 A2973 RMK AO2
K3K3 161155Z AUTO 29005KT 10SM CLR M07/M11 A2974 RMK AO2
K3K3 161135Z AUTO 29004KT 10SM CLR M07/M11 A2975 RMK AO2
K3K3 161115Z AUTO 29003KT 10SM CLR M07/M11 A2975 RMK AO2
K3K3 161055Z AUTO 28004KT 10SM CLR M07/M11 A2976 RMK AO2
K3K3 161035Z AUTO 28005KT 10SM CLR M06/M11 A2977 RMK AO2
K3K3 161015Z AUTO 26004KT 10SM CLR M06/M11 A2978 RMK AO2
K3K3 160955Z AUTO 28004KT 10SM CLR M06/M11 A2978 RMK AO2
K3K3 160935Z AUTO 30005KT 10SM CLR M06/M12 A2978 RMK AO2
K3K3 160915Z AUTO 31005KT 10SM CLR M07/M12 A2979 RMK AO2
K3K3 160900Z AUTO 28003KT 10SM CLR M06/M12 A2980 RMK AO2
K3K3 160835Z AUTO 00000KT 10SM CLR M06/M12 A2980 RMK AO2
K3K3 160815Z AUTO 28004KT 10SM CLR M05/M11 A2980 RMK AO2
K3K3 160755Z AUTO 24005KT 10SM CLR M05/M11 A2981 RMK AO2
K3K3 160735Z AUTO 27004KT 10SM CLR M05/M11 A2981 RMK AO2
K3K3 160715Z AUTO 27005KT 10SM CLR M03/M11 A2981 RMK AO2
K3K3 160655Z AUTO 29004KT 10SM CLR M06/M11 A2982 RMK AO2
K3K3 160635Z AUTO 00000KT 10SM CLR M02/M11 A2982 RMK AO2
K3K3 160615Z AUTO 00000KT 10SM CLR M02/M11 A2983 RMK AO2
K3K3 160555Z AUTO 28003KT 10SM CLR 00/M11 A2984 RMK AO2
K3K3 160535Z AUTO 23003KT 10SM CLR M01/M11 A2985 RMK AO2
K3K3 160515Z AUTO 24003KT 10SM CLR 01/M10 A2985 RMK AO2
K3K3 160455Z AUTO 34004KT 10SM CLR M01/M11 A2985 RMK AO2
K3K3 160435Z AUTO 34003KT 10SM CLR 00/M11 A2985 RMK AO2
K3K3 160415Z AUTO 30004KT 10SM CLR 03/M10 A2985 RMK AO2
K3K3 160355Z AUTO 31003KT 10SM CLR 03/M10 A2985 RMK AO2
K3K3 160335Z AUTO 00000KT 10SM CLR 03/M10 A2986 RMK AO2
K3K3 160315Z AUTO 24005KT 10SM CLR 05/M11 A2988 RMK AO2
K3K3 160255Z AUTO 22005KT 10SM CLR 05/M11 A2988 RMK AO2
K3K3 160235Z AUTO 20006KT 10SM CLR 05/M12 A2989 RMK AO2
K3K3 160215Z AUTO 19007KT 10SM CLR 05/M13 A2989 RMK AO2